Time;durP1;ratioP1;P1;durP2;ratioP2;P2;SDS_P1;SDS_P2;PMS_P1;PMS_P2;Temp;Humidity;BMP_temperature;BMP_pressure;BME280_temperature;BME280_humidity;BME280_pressure;Samples;Min_cycle;Max_cycle;Signal;HPM_P1;HPM_P2
2023/10/28 00:01:37;;;;;;;27.27;12.97;;;;;;;9.62;100.00;99126.38;4992127;28;20595;-74
2023/10/28 00:04:04;;;;;;;27.37;13.47;;;;;;;9.63;100.00;99119.97;4988190;28;21425;-73
2023/10/28 00:06:30;;;;;;;26.40;12.33;;;;;;;9.64;100.00;99126.00;4992370;28;20206;-73
2023/10/28 00:08:57;;;;;;;27.63;13.10;;;;;;;9.63;100.00;99125.25;4990122;28;21222;-73
2023/10/28 00:11:23;;;;;;;26.27;13.10;;;;;;;9.64;100.00;99123.38;4973430;28;20215;-74
2023/10/28 00:13:50;;;;;;;22.03;11.13;;;;;;;9.65;100.00;99125.66;4989718;28;20906;-74
2023/10/28 00:16:16;;;;;;;25.53;10.90;;;;;;;9.65;100.00;99124.91;4992893;28;20214;-74
2023/10/28 00:18:44;;;;;;;23.70;11.13;;;;;;;9.66;100.00;99123.78;4976846;28;21228;-74
2023/10/28 00:21:11;;;;;;;24.17;10.60;;;;;;;9.67;100.00;99127.94;4991558;28;21109;-74
2023/10/28 00:23:38;;;;;;;20.50;10.70;;;;;;;9.67;100.00;99135.84;4990264;28;21958;-74
2023/10/28 00:26:05;;;;;;;23.10;11.43;;;;;;;9.68;100.00;99127.56;4993458;28;20885;-74
2023/10/28 00:28:32;;;;;;;22.03;10.70;;;;;;;9.68;100.00;99132.84;4993655;28;20203;-74
2023/10/28 00:30:59;;;;;;;28.20;11.10;;;;;;;9.69;100.00;99131.72;4979526;28;20208;-74
2023/10/28 00:33:26;;;;;;;20.57;10.57;;;;;;;9.70;100.00;99130.63;4974298;28;20211;-74
2023/10/28 00:35:55;;;;;;;23.27;10.33;;;;;;;9.72;100.00;99130.25;4971750;28;20961;-74
2023/10/28 00:38:22;;;;;;;19.73;9.80;;;;;;;9.74;100.00;99133.31;4991939;28;20219;-74
2023/10/28 00:40:48;;;;;;;20.13;10.23;;;;;;;9.75;100.00;99124.28;4991562;28;20207;-74
2023/10/28 00:43:15;;;;;;;22.87;10.37;;;;;;;9.76;100.00;99117.91;4991472;28;20671;-74
2023/10/28 00:45:42;;;;;;;15.77;8.50;;;;;;;9.77;100.00;99127.31;4971324;28;20356;-74
2023/10/28 00:48:08;;;;;;;24.17;9.60;;;;;;;9.77;100.00;99129.97;4984090;28;20692;-74
2023/10/28 00:50:34;;;;;;;24.47;10.27;;;;;;;9.78;100.00;99120.97;4993419;28;20208;-74
2023/10/28 00:53:03;;;;;;;20.03;9.10;;;;;;;9.78;100.00;99120.97;4970505;28;20204;-74
2023/10/28 00:55:30;;;;;;;14.83;9.13;;;;;;;9.79;100.00;99127.75;4972931;28;20255;-74
2023/10/28 00:57:57;;;;;;;20.73;9.73;;;;;;;9.78;100.00;99123.59;4989565;28;20232;-74
2023/10/28 01:00:23;;;;;;;21.33;9.80;;;;;;;9.81;100.00;99130.78;4974843;28;20280;-74
2023/10/28 01:02:51;;;;;;;18.40;9.63;;;;;;;9.81;100.00;99128.91;4991974;28;20219;-74
2023/10/28 01:05:17;;;;;;;18.90;9.17;;;;;;;9.80;100.00;99127.41;4972359;28;20243;-74
2023/10/28 01:07:48;;;;;;;15.63;8.43;;;;;;;9.82;100.00;99129.66;4991916;28;20341;-74
2023/10/28 01:10:27;;;;;;;18.27;8.40;;;;;;;9.83;100.00;99133.84;4971174;28;20215;-74
2023/10/28 01:12:53;;;;;;;17.70;8.23;;;;;;;9.84;100.00;99130.81;4971081;28;20903;-74
2023/10/28 01:15:20;;;;;;;14.47;8.37;;;;;;;9.84;100.00;99124.81;4975815;28;21573;-74
2023/10/28 01:17:48;;;;;;;14.23;8.10;;;;;;;9.85;100.00;99131.59;4990423;28;20577;-74
2023/10/28 01:20:15;;;;;;;18.37;8.30;;;;;;;9.87;100.00;99132.00;4973258;28;20842;-74
2023/10/28 01:22:44;;;;;;;16.77;8.07;;;;;;;9.86;100.00;99139.16;4991544;28;20222;-74
2023/10/28 01:25:11;;;;;;;14.63;7.33;;;;;;;9.88;100.00;99139.56;4990128;28;20628;-74
2023/10/28 01:27:38;;;;;;;14.70;6.97;;;;;;;9.89;100.00;99140.31;4970098;28;20233;-74
2023/10/28 01:30:07;;;;;;;13.37;7.20;;;;;;;9.90;100.00;99144.47;4971884;28;20212;-74
2023/10/28 01:32:33;;;;;;;16.67;6.50;;;;;;;9.91;100.00;99140.72;4973020;28;20918;-74
2023/10/28 01:34:59;;;;;;;13.30;6.80;;;;;;;9.92;100.00;99136.97;4972598;28;20238;-74
2023/10/28 01:37:26;;;;;;;11.20;6.03;;;;;;;9.93;100.00;99141.16;4988971;28;20207;-74
2023/10/28 01:39:54;;;;;;;11.00;5.43;;;;;;;9.95;100.00;99136.25;4988871;28;20569;-74
2023/10/28 01:42:22;;;;;;;7.53;5.30;;;;;;;9.96;100.00;99135.91;4989338;28;20285;-74
2023/10/28 01:44:50;;;;;;;9.47;5.27;;;;;;;9.97;100.00;99144.56;4989010;28;20224;-74
2023/10/28 01:47:17;;;;;;;11.27;5.70;;;;;;;9.98;100.00;99138.19;4972956;28;20216;-74
2023/10/28 01:49:44;;;;;;;8.97;5.40;;;;;;;10.00;100.00;99138.59;4972130;28;20211;-74
2023/10/28 01:52:12;;;;;;;8.67;4.73;;;;;;;10.01;100.00;99140.13;4968126;28;20968;-74
2023/10/28 01:54:39;;;;;;;8.63;4.77;;;;;;;10.00;100.00;99136.69;4985071;28;20692;-74
2023/10/28 01:57:09;;;;;;;11.20;5.37;;;;;;;10.01;100.00;99132.19;4970119;28;20212;-74
2023/10/28 01:59:36;;;;;;;8.97;4.77;;;;;;;10.00;100.00;99136.69;4975711;28;20326;-73
2023/10/28 02:02:03;;;;;;;12.67;4.90;;;;;;;10.01;100.00;99140.13;4967961;28;20224;-74
2023/10/28 02:04:30;;;;;;;6.33;3.83;;;;;;;10.00;100.00;99133.31;4970524;28;20239;-74
2023/10/28 02:06:57;;;;;;;6.43;4.07;;;;;;;10.00;100.00;99139.34;4972646;28;20569;-74
2023/10/28 02:09:25;;;;;;;8.50;4.40;;;;;;;10.01;100.00;99142.75;4972036;28;20208;-74
2023/10/28 02:11:52;;;;;;;11.27;3.87;;;;;;;10.01;100.00;99140.13;4990453;28;20332;-74
2023/10/28 02:14:20;;;;;;;9.53;3.60;;;;;;;10.02;100.00;99137.13;4974599;28;20326;-74
2023/10/28 02:16:47;;;;;;;8.23;3.97;;;;;;;10.04;100.00;99144.72;4970456;28;20208;-74
2023/10/28 02:19:14;;;;;;;8.00;3.80;;;;;;;10.04;100.00;99142.81;4971729;28;20303;-74
2023/10/28 02:21:40;;;;;;;5.20;3.63;;;;;;;10.06;100.00;99150.38;4970812;28;20220;-74
2023/10/28 02:24:08;;;;;;;6.67;3.60;;;;;;;10.06;100.00;99151.16;4988435;28;20437;-74
2023/10/28 02:26:35;;;;;;;5.37;3.30;;;;;;;10.07;100.00;99146.63;4972101;28;21231;-74
2023/10/28 02:29:01;;;;;;;5.97;3.47;;;;;;;10.07;100.00;99142.13;4973251;28;20215;-74
2023/10/28 02:31:29;;;;;;;7.83;3.07;;;;;;;10.09;100.00;99154.97;4971450;28;20226;-73
2023/10/28 02:33:56;;;;;;;11.27;3.70;;;;;;;10.10;100.00;99153.84;4986130;28;20219;-73
2023/10/28 02:36:22;;;;;;;3.53;2.90;;;;;;;10.11;100.00;99152.72;4970222;28;20248;-74
2023/10/28 02:38:49;;;;;;;9.87;4.07;;;;;;;10.11;100.00;99160.63;4969778;28;20426;-74
2023/10/28 02:41:16;;;;;;;4.73;3.00;;;;;;;10.11;100.00;99169.31;4985810;28;21314;-74
2023/10/28 02:43:42;;;;;;;5.20;2.93;;;;;;;10.11;100.00;99166.69;4967183;28;20222;-74
2023/10/28 02:46:08;;;;;;;5.60;3.10;;;;;;;10.11;100.00;99171.94;4970188;28;21454;-73
2023/10/28 02:48:36;;;;;;;5.40;3.17;;;;;;;10.10;100.00;99174.94;4988482;28;20208;-74
2023/10/28 02:51:04;;;;;;;5.63;2.77;;;;;;;10.09;100.00;99181.34;4990647;28;20812;-74
2023/10/28 02:53:31;;;;;;;6.93;3.50;;;;;;;10.10;100.00;99188.13;4988552;28;20295;-74
2023/10/28 02:55:57;;;;;;;8.27;3.00;;;;;;;10.08;100.00;99179.78;4985864;28;20224;-74
2023/10/28 02:58:23;;;;;;;5.40;2.87;;;;;;;10.09;100.00;99187.34;4984496;28;20219;-74
2023/10/28 03:00:50;;;;;;;6.43;3.97;;;;;;;10.08;100.00;99185.84;4971650;28;20268;-74
2023/10/28 03:03:16;;;;;;;4.33;2.97;;;;;;;10.08;100.00;99177.94;4970577;28;20346;-74
2023/10/28 03:05:44;;;;;;;6.20;2.97;;;;;;;10.08;100.00;99191.13;4992675;28;20488;-74
2023/10/28 03:08:11;;;;;;;5.47;2.70;;;;;;;10.08;100.00;99185.84;4970913;28;21011;-73
2023/10/28 03:10:37;;;;;;;5.63;2.53;;;;;;;10.08;100.00;99185.84;4987419;28;20211;-74
2023/10/28 03:13:03;;;;;;;7.43;2.70;;;;;;;10.08;100.00;99185.84;4989568;28;20200;-73
2023/10/28 03:15:32;;;;;;;3.60;2.60;;;;;;;10.09;100.00;99178.69;4975360;28;20834;-74
2023/10/28 03:17:58;;;;;;;3.20;2.47;;;;;;;10.09;100.00;99184.72;4976798;28;20221;-74
2023/10/28 03:20:24;;;;;;;9.97;3.23;;;;;;;10.10;100.00;99188.13;4992861;28;20211;-74
2023/10/28 03:22:52;;;;;;;7.90;2.60;;;;;;;10.08;100.00;99183.19;4974678;28;20763;-74
2023/10/28 03:25:18;;;;;;;5.30;3.23;;;;;;;10.08;100.00;99187.69;4977710;28;21792;-74
2023/10/28 03:27:45;;;;;;;7.20;2.80;;;;;;;10.08;100.00;99199.03;4993473;28;20211;-74
2023/10/28 03:30:12;;;;;;;3.43;2.30;;;;;;;10.08;100.00;99193.75;4992558;28;21278;-74
2023/10/28 03:32:39;;;;;;;3.87;2.77;;;;;;;10.07;100.00;99194.88;4996506;28;20227;-74
2023/10/28 03:35:06;;;;;;;8.67;2.87;;;;;;;10.08;100.00;99198.25;4993757;28;20223;-74
2023/10/28 03:37:35;;;;;;;2.93;2.30;;;;;;;10.07;100.00;99202.00;4994082;28;20827;-74
2023/10/28 03:40:04;;;;;;;6.90;3.13;;;;;;;10.07;100.00;99192.22;4993031;28;20208;-74
2023/10/28 03:42:31;;;;;;;3.90;2.60;;;;;;;10.06;100.00;99197.84;4992234;28;20698;-73
2023/10/28 03:44:59;;;;;;;2.83;2.40;;;;;;;10.05;100.00;99196.34;4992012;28;20239;-73
2023/10/28 03:47:25;;;;;;;8.60;3.00;;;;;;;10.06;100.00;99203.13;4991348;28;20222;-74
2023/10/28 03:49:51;;;;;;;6.37;2.83;;;;;;;10.05;100.00;99209.53;4992750;28;20966;-74
2023/10/28 03:52:18;;;;;;;6.77;2.60;;;;;;;10.03;100.00;99201.94;4987529;28;20218;-74
2023/10/28 03:54:44;;;;;;;3.73;2.60;;;;;;;10.02;100.00;99218.09;4975641;28;20235;-74
2023/10/28 03:57:12;;;;;;;5.17;2.50;;;;;;;10.01;100.00;99213.94;4973013;28;20212;-74
2023/10/28 03:59:38;;;;;;;3.87;2.63;;;;;;;10.00;100.00;99212.44;4994018;28;20213;-74
2023/10/28 04:02:05;;;;;;;4.47;2.60;;;;;;;9.99;100.00;99208.28;4971619;28;20229;-75
2023/10/28 04:04:31;;;;;;;2.60;2.40;;;;;;;9.97;100.00;99208.63;4987615;28;20852;-74
2023/10/28 04:06:57;;;;;;;4.17;2.87;;;;;;;9.97;100.00;99205.22;4990748;28;20211;-74
2023/10/28 04:09:24;;;;;;;4.73;2.33;;;;;;;9.96;100.00;99222.94;4991671;28;20208;-73
2023/10/28 04:11:50;;;;;;;9.17;3.20;;;;;;;9.97;100.00;99218.41;4974982;28;20214;-74
2023/10/28 04:14:18;;;;;;;5.07;2.30;;;;;;;9.95;100.00;99216.13;4993830;28;20238;-74
2023/10/28 04:19:18;;;;;;;8.80;2.50;;;;;;;9.95;100.00;99228.56;4986579;28;20223;-69
2023/10/28 04:21:46;;;;;;;3.87;2.53;;;;;;;9.93;100.00;99230.78;4993557;28;20214;-69
2023/10/28 04:24:12;;;;;;;5.33;2.70;;;;;;;9.94;100.00;99227.03;4994604;28;21350;-69
2023/10/28 04:26:38;;;;;;;11.97;2.40;;;;;;;9.91;100.00;99228.50;4987352;28;20842;-70
2023/10/28 04:29:05;;;;;;;5.60;2.87;;;;;;;9.91;100.00;99225.09;4988811;28;20292;-70
2023/10/28 04:31:33;;;;;;;7.07;2.70;;;;;;;9.90;100.00;99234.91;4988144;28;20589;-70
2023/10/28 04:34:00;;;;;;;6.00;2.50;;;;;;;9.89;100.00;99235.25;4991398;28;20504;-69
2023/10/28 04:36:27;;;;;;;3.67;1.97;;;;;;;9.84;100.00;99230.25;4990172;28;21099;-70
2023/10/28 04:38:53;;;;;;;3.80;2.80;;;;;;;9.79;100.00;99233.19;4991810;28;20228;-70
2023/10/28 04:41:19;;;;;;;6.73;2.67;;;;;;;9.77;100.00;99225.63;4987790;28;20211;-69
2023/10/28 04:43:46;;;;;;;3.17;2.30;;;;;;;9.74;100.00;99230.84;4989860;28;20593;-68
2023/10/28 04:46:12;;;;;;;6.63;2.83;;;;;;;9.72;100.00;99225.16;4991350;28;20807;-69
2023/10/28 04:48:42;;;;;;;2.63;2.17;;;;;;;9.69;100.00;99236.41;4990041;28;20531;-69
2023/10/28 04:51:08;;;;;;;5.67;2.60;;;;;;;9.64;100.00;99232.19;4989652;28;20441;-69
2023/10/28 04:53:35;;;;;;;6.57;2.77;;;;;;;9.62;100.00;99241.56;4990764;28;20218;-70
2023/10/28 04:56:01;;;;;;;5.07;2.97;;;;;;;9.57;100.00;99241.88;4989963;28;21405;-69
2023/10/28 04:58:28;;;;;;;5.70;2.53;;;;;;;9.51;100.00;99236.09;4988517;28;20231;-69
2023/10/28 05:00:54;;;;;;;7.40;2.40;;;;;;;9.43;100.00;99237.09;4986770;28;20984;-68
2023/10/28 05:03:20;;;;;;;5.07;2.87;;;;;;;9.41;100.00;99235.91;4993443;28;20215;-68
2023/10/28 05:05:48;;;;;;;5.70;2.47;;;;;;;9.37;100.00;99240.38;4989081;28;21312;-68
2023/10/28 05:08:16;;;;;;;3.30;2.60;;;;;;;9.34;100.00;99241.06;4990030;28;20227;-68
2023/10/28 05:10:42;;;;;;;5.20;2.60;;;;;;;9.31;100.00;99249.69;4989311;28;20763;-69
2023/10/28 05:13:10;;;;;;;7.40;2.53;;;;;;;9.30;100.00;99256.03;4989416;28;20453;-71
2023/10/28 05:15:36;;;;;;;3.80;2.87;;;;;;;9.27;100.00;99260.13;4990810;28;20325;-70
2023/10/28 05:18:03;;;;;;;3.53;2.57;;;;;;;9.26;100.00;99266.50;4993616;28;21399;-69
2023/10/28 05:20:30;;;;;;;4.60;2.40;;;;;;;9.26;100.00;99277.03;4990724;28;20222;-69
2023/10/28 05:22:57;;;;;;;3.73;2.80;;;;;;;9.25;100.00;99277.38;4982816;28;20369;-69
2023/10/28 05:25:24;;;;;;;3.13;2.57;;;;;;;9.25;100.00;99278.16;4991780;28;20261;-69
2023/10/28 05:27:50;;;;;;;5.07;2.73;;;;;;;9.27;100.00;99275.19;4990119;28;20238;-68
2023/10/28 05:30:16;;;;;;;3.00;2.60;;;;;;;9.27;100.00;99269.91;4990131;28;20234;-70
2023/10/28 05:32:43;;;;;;;3.20;2.77;;;;;;;9.27;100.00;99268.03;4992161;28;20211;-69
2023/10/28 05:35:11;;;;;;;5.57;3.10;;;;;;;9.27;100.00;99269.91;4989789;28;20865;-69
2023/10/28 05:37:37;;;;;;;13.90;3.40;;;;;;;9.29;100.00;99283.47;4989491;28;20242;-69
2023/10/28 05:40:10;;;;;;;3.83;2.70;;;;;;;9.29;100.00;99279.00;4991193;28;20210;-69
2023/10/28 05:42:36;;;;;;;8.93;2.67;;;;;;;9.30;100.00;99277.09;4990490;28;20351;-69
2023/10/28 05:45:03;;;;;;;5.17;2.90;;;;;;;9.29;100.00;99286.88;4989242;28;20264;-69
2023/10/28 05:47:29;;;;;;;4.50;2.40;;;;;;;9.28;100.00;99288.00;4989088;28;20235;-69
2023/10/28 05:49:57;;;;;;;7.03;2.70;;;;;;;9.26;100.00;99294.72;4985178;28;20211;-69
2023/10/28 05:52:23;;;;;;;5.07;2.93;;;;;;;9.25;100.00;99293.97;4989768;28;20222;-68
2023/10/28 05:54:50;;;;;;;6.00;2.87;;;;;;;9.23;100.00;99296.19;4988829;28;20211;-69
2023/10/28 05:57:17;;;;;;;8.50;2.87;;;;;;;9.19;100.00;99292.72;4988818;28;20238;-70
2023/10/28 05:59:44;;;;;;;4.07;2.60;;;;;;;9.16;100.00;99303.94;4986959;28;21409;-69
2023/10/28 06:02:10;;;;;;;6.90;3.07;;;;;;;9.11;100.00;99303.47;4988109;28;20214;-70
2023/10/28 06:04:37;;;;;;;8.03;2.80;;;;;;;9.06;100.00;99312.38;4988965;28;20251;-69
2023/10/28 06:07:03;;;;;;;10.17;3.27;;;;;;;9.04;100.00;99311.19;4988849;28;20639;-70
2023/10/28 06:09:30;;;;;;;7.03;2.67;;;;;;;8.98;100.00;99312.59;4992333;28;20215;-69
2023/10/28 06:11:56;;;;;;;4.13;2.97;;;;;;;8.94;100.00;99317.00;4987094;28;20238;-69
2023/10/28 06:14:24;;;;;;;3.13;2.50;;;;;;;8.90;100.00;99319.56;4991987;28;20206;-70
2023/10/28 06:16:50;;;;;;;7.07;2.70;;;;;;;8.86;100.00;99326.63;4989714;28;20676;-69
2023/10/28 06:19:17;;;;;;;6.33;2.60;;;;;;;8.83;100.00;99323.91;4989554;28;20931;-69
2023/10/28 06:21:43;;;;;;;5.00;3.03;;;;;;;8.78;100.00;99316.28;4986502;28;20227;-69
2023/10/28 06:24:09;;;;;;;11.77;3.83;;;;;;;8.74;100.00;99324.09;4988540;28;20233;-69
2023/10/28 06:26:36;;;;;;;12.53;5.80;;;;;;;8.70;100.00;99320.63;4985822;28;20211;-69
2023/10/28 06:29:02;;;;;;;14.43;6.40;;;;;;;8.69;100.00;99324.38;4988796;28;20235;-69
2023/10/28 06:31:30;;;;;;;9.60;5.13;;;;;;;8.67;100.00;99329.22;4967335;28;20361;-68
2023/10/28 06:33:56;;;;;;;10.27;3.70;;;;;;;8.66;100.00;99325.06;4987728;28;20216;-69
2023/10/28 06:36:23;;;;;;;6.40;3.50;;;;;;;8.67;100.00;99331.09;4986829;28;21007;-70
2023/10/28 06:38:49;;;;;;;8.27;3.67;;;;;;;8.67;100.00;99328.44;4984398;28;20228;-69
2023/10/28 06:41:15;;;;;;;9.97;3.57;;;;;;;8.68;100.00;99335.22;4988736;28;21342;-69
2023/10/28 06:43:42;;;;;;;6.73;3.30;;;;;;;8.70;100.00;99340.94;4990296;28;20272;-70
2023/10/28 06:46:09;;;;;;;3.97;3.27;;;;;;;8.71;100.00;99345.09;4990894;28;20211;-70
2023/10/28 06:48:36;;;;;;;10.07;3.30;;;;;;;8.72;100.00;99352.66;4993400;28;20245;-70
2023/10/28 06:51:04;;;;;;;5.87;3.13;;;;;;;8.73;100.00;99351.53;4990867;28;20224;-69
2023/10/28 06:53:31;;;;;;;17.47;4.60;;;;;;;8.73;100.00;99358.66;4992211;28;20207;-68
2023/10/28 06:55:57;;;;;;;9.43;3.93;;;;;;;8.74;100.00;99360.19;4993975;28;20210;-70
2023/10/28 06:58:23;;;;;;;7.27;3.57;;;;;;;8.74;100.00;99374.13;4994972;28;20916;-70
2023/10/28 07:00:50;;;;;;;7.77;3.50;;;;;;;8.74;100.00;99376.75;4991781;28;20709;-70
2023/10/28 07:03:17;;;;;;;9.33;3.50;;;;;;;8.74;100.00;99371.47;4995080;28;20242;-69
2023/10/28 07:05:45;;;;;;;6.63;3.67;;;;;;;8.72;100.00;99378.97;4993794;28;20415;-69
2023/10/28 07:08:12;;;;;;;7.47;3.53;;;;;;;8.74;100.00;99375.97;4994058;28;20234;-68
2023/10/28 07:10:39;;;;;;;7.93;3.57;;;;;;;8.75;100.00;99380.16;4988026;28;20225;-69
2023/10/28 07:13:05;;;;;;;7.57;4.33;;;;;;;8.77;100.00;99377.94;4989596;28;20302;-69
2023/10/28 07:15:31;;;;;;;11.43;3.97;;;;;;;8.80;100.00;99391.16;4998109;28;20237;-68
2023/10/28 07:17:58;;;;;;;9.60;4.53;;;;;;;8.85;100.00;99385.63;4994022;28;20233;-69
2023/10/28 07:20:25;;;;;;;6.80;3.67;;;;;;;8.91;100.00;99386.16;4993046;28;20218;-68
2023/10/28 07:22:52;;;;;;;10.03;4.87;;;;;;;8.96;100.00;99388.53;4993715;28;20217;-71
2023/10/28 07:25:18;;;;;;;10.03;4.83;;;;;;;9.03;100.00;99392.06;4995438;28;20815;-69
2023/10/28 07:27:45;;;;;;;8.43;4.90;;;;;;;9.14;100.00;99393.06;4994673;28;20238;-70
2023/10/28 07:30:13;;;;;;;10.73;4.70;;;;;;;9.23;100.00;99403.41;4990925;28;20211;-69
2023/10/28 07:32:40;;;;;;;12.27;4.93;;;;;;;9.29;100.00;99407.28;4993007;28;20211;-69
2023/10/28 07:35:07;;;;;;;10.27;4.70;;;;;;;9.41;100.00;99420.31;4989215;28;20210;-70
2023/10/28 07:37:34;;;;;;;9.27;4.70;;;;;;;9.53;100.00;99413.06;4989109;28;20277;-70
2023/10/28 07:40:03;;;;;;;9.17;4.57;;;;;;;9.60;100.00;99426.41;4991018;28;21322;-69
2023/10/28 07:42:29;;;;;;;8.83;4.87;;;;;;;9.72;100.00;99426.25;4993464;28;20303;-69
2023/10/28 07:44:56;;;;;;;9.53;5.13;;;;;;;9.81;100.00;99426.81;4992463;28;20227;-69
2023/10/28 07:47:22;;;;;;;13.77;5.17;;;;;;;9.89;100.00;99430.34;4988737;28;20235;-69
2023/10/28 07:49:48;;;;;;;11.97;5.47;;;;;;;9.92;100.00;99435.69;4993296;28;20212;-69
2023/10/28 07:52:15;;;;;;;12.50;5.97;;;;;;;9.97;100.00;99445.19;4994038;28;20226;-69
2023/10/28 07:54:42;;;;;;;8.13;5.00;;;;;;;10.02;100.00;99442.25;4991992;28;20952;-69
2023/10/28 07:57:10;;;;;;;11.07;4.90;;;;;;;10.05;100.00;99446.88;4981717;28;20736;-69
2023/10/28 07:59:37;;;;;;;11.03;5.10;;;;;;;10.08;100.00;99440.91;4989911;28;20214;-70
2023/10/28 08:02:03;;;;;;;10.10;5.50;;;;;;;10.13;100.00;99448.53;4989147;28;20211;-70
2023/10/28 08:04:30;;;;;;;9.77;5.10;;;;;;;10.15;100.00;99451.59;4993753;28;21681;-71
2023/10/28 08:06:56;;;;;;;8.17;5.00;;;;;;;10.17;100.00;99444.88;4987621;28;20222;-69
2023/10/28 08:09:23;;;;;;;14.00;5.77;;;;;;;10.21;100.00;99450.19;4991867;28;20608;-69
2023/10/28 08:11:50;;;;;;;13.60;7.97;;;;;;;10.23;100.00;99450.59;4992847;28;20207;-70
2023/10/28 08:14:18;;;;;;;10.47;5.70;;;;;;;10.28;100.00;99453.72;4992974;28;20354;-70
2023/10/28 08:16:45;;;;;;;12.47;5.07;;;;;;;10.34;100.00;99460.25;4994676;28;20838;-70
2023/10/28 08:19:12;;;;;;;11.70;5.80;;;;;;;10.39;100.00;99462.59;4991627;28;20216;-71
2023/10/28 08:21:38;;;;;;;14.23;4.83;;;;;;;10.44;100.00;99464.16;4976708;28;20684;-70
2023/10/28 08:24:08;;;;;;;14.93;7.60;;;;;;;10.51;100.00;99470.34;4988642;28;20979;-70
2023/10/28 08:26:34;;;;;;;15.83;5.70;;;;;;;10.56;100.00;99479.84;4987449;28;20219;-70
2023/10/28 08:29:01;;;;;;;19.57;6.40;;;;;;;10.62;100.00;99487.09;4992366;28;20231;-70
2023/10/28 08:31:29;;;;;;;14.10;6.73;;;;;;;10.70;100.00;99482.72;4992669;28;20219;-70
2023/10/28 08:33:55;;;;;;;15.80;7.40;;;;;;;10.78;100.00;99501.00;4995776;28;20202;-70
2023/10/28 08:36:21;;;;;;;11.77;6.13;;;;;;;10.86;100.00;99496.56;4993526;28;20204;-70
2023/10/28 08:38:48;;;;;;;12.93;6.17;;;;;;;10.92;100.00;99498.56;4992833;28;20695;-70
2023/10/28 08:41:17;;;;;;;13.13;6.47;;;;;;;10.96;100.00;99501.25;4992543;28;20398;-69
2023/10/28 08:43:45;;;;;;;11.63;6.67;;;;;;;10.99;100.00;99503.97;4992388;28;20224;-70
2023/10/28 08:46:13;;;;;;;10.23;6.00;;;;;;;11.00;100.00;99507.34;4994356;28;20329;-69
2023/10/28 08:48:43;;;;;;;9.43;5.73;;;;;;;11.02;100.00;99511.16;4996243;28;20231;-70
2023/10/28 08:51:13;;;;;;;9.83;6.27;;;;;;;11.01;100.00;99514.16;4989350;28;20212;-69
2023/10/28 08:53:41;;;;;;;11.20;6.60;;;;;;;10.98;100.00;99515.63;4990833;28;20287;-70
2023/10/28 08:56:08;;;;;;;10.17;5.50;;;;;;;10.98;100.00;99526.19;4988250;28;20210;-70
2023/10/28 08:58:37;;;;;;;8.00;5.67;;;;;;;10.98;100.00;99520.16;4994752;28;20982;-69
2023/10/28 09:01:04;;;;;;;11.37;5.17;;;;;;;10.99;100.00;99524.34;4985691;28;20218;-69
2023/10/28 09:03:32;;;;;;;7.97;5.47;;;;;;;11.00;100.00;99526.63;4993837;28;20208;-70
2023/10/28 09:06:03;;;;;;;14.20;6.67;;;;;;;11.02;100.00;99529.66;4991409;28;20215;-69
2023/10/28 09:08:29;;;;;;;14.47;6.47;;;;;;;11.09;100.00;99535.09;4993410;28;20261;-70
2023/10/28 09:10:57;;;;;;;10.77;5.97;;;;;;;11.17;100.00;99539.34;4991266;28;20200;-69
2023/10/28 09:13:24;;;;;;;16.40;9.27;;;;;;;11.25;100.00;99530.41;4976888;28;20224;-70
2023/10/28 09:15:51;;;;;;;15.23;8.70;;;;;;;11.36;100.00;99538.50;4994524;28;20214;-70
2023/10/28 09:18:17;;;;;;;11.83;6.57;;;;;;;11.48;100.00;99531.13;4989679;28;20242;-70
2023/10/28 09:20:44;;;;;;;12.70;7.20;;;;;;;11.59;100.00;99532.06;4992251;28;20218;-70
2023/10/28 09:23:13;;;;;;;14.13;7.40;;;;;;;11.67;100.00;99548.81;4989382;28;20221;-69
2023/10/28 09:25:40;;;;;;;11.93;7.03;;;;;;;11.77;100.00;99548.19;4993074;28;20233;-70
2023/10/28 09:28:15;;;;;;;13.63;7.23;;;;;;;11.85;100.00;99552.47;4974142;28;21738;-70
2023/10/28 09:30:46;;;;;;;14.43;7.63;;;;;;;11.93;100.00;99556.72;4995291;28;21432;-70
2023/10/28 09:33:13;;;;;;;10.27;6.47;;;;;;;11.99;100.00;99549.97;4990761;28;21335;-70
2023/10/28 09:35:40;;;;;;;14.37;7.50;;;;;;;12.07;100.00;99557.66;4992332;28;20207;-70
2023/10/28 09:38:08;;;;;;;13.53;6.80;;;;;;;12.14;99.54;99563.03;4974181;28;20235;-70
2023/10/28 09:40:35;;;;;;;19.13;8.00;;;;;;;12.24;100.00;99569.56;4990479;28;20978;-70
2023/10/28 09:43:03;;;;;;;12.57;7.33;;;;;;;12.33;99.89;99562.91;4991683;28;20219;-70
2023/10/28 09:45:29;;;;;;;16.23;7.83;;;;;;;12.42;98.47;99557.31;4990699;28;20231;-69
2023/10/28 09:47:57;;;;;;;15.17;7.20;;;;;;;12.51;98.27;99563.06;4986950;28;20245;-70
2023/10/28 09:50:26;;;;;;;13.80;7.03;;;;;;;12.61;98.83;99565.06;4987767;28;20293;-71
2023/10/28 09:52:54;;;;;;;15.67;8.17;;;;;;;12.69;98.91;99564.78;4991406;28;20681;-70
2023/10/28 09:55:24;;;;;;;12.30;7.40;;;;;;;12.75;97.27;99562.59;4990830;28;20421;-71
2023/10/28 09:58:00;;;;;;;13.80;7.80;;;;;;;12.79;96.10;99564.13;4993525;28;20242;-70
2023/10/28 10:00:28;;;;;;;11.17;7.20;;;;;;;12.82;95.96;99562.63;4989850;28;21189;-71
2023/10/28 10:03:06;;;;;;;12.63;7.27;;;;;;;12.82;95.10;99563.41;4990219;28;20218;-70
2023/10/28 10:05:40;;;;;;;11.40;6.60;;;;;;;12.83;95.25;99567.59;4989586;28;20725;-70
2023/10/28 10:08:17;;;;;;;13.07;7.40;;;;;;;12.83;94.40;99577.44;4989159;28;20631;-71
2023/10/28 10:10:45;;;;;;;8.37;6.27;;;;;;;12.82;94.98;99571.34;4992787;28;21514;-70
2023/10/28 10:13:15;;;;;;;11.93;6.67;;;;;;;12.81;94.72;99567.19;4991271;28;20207;-70
2023/10/28 10:15:48;;;;;;;12.23;6.07;;;;;;;12.79;94.84;99566.03;4990937;28;20245;-69
2023/10/28 10:18:22;;;;;;;10.87;5.90;;;;;;;12.77;93.73;99573.56;4986016;28;20705;-71
2023/10/28 10:20:49;;;;;;;11.07;6.00;;;;;;;12.79;94.64;99566.78;4989732;28;20932;-71
2023/10/28 10:23:15;;;;;;;8.47;5.30;;;;;;;12.80;95.45;99570.19;4989293;28;20254;-70
2023/10/28 10:25:44;;;;;;;8.03;5.77;;;;;;;12.79;95.18;99576.63;4994280;28;21451;-70
2023/10/28 10:28:14;;;;;;;14.20;5.53;;;;;;;12.81;94.85;99574.38;4994395;28;20361;-70
2023/10/28 10:30:42;;;;;;;8.40;5.57;;;;;;;12.84;95.20;99576.31;4993662;28;20222;-71
2023/10/28 10:33:08;;;;;;;10.13;6.10;;;;;;;12.86;93.89;99569.50;4992067;28;20211;-71
2023/10/28 10:35:37;;;;;;;8.87;6.47;;;;;;;12.92;94.09;99569.94;4994014;28;20207;-70
2023/10/28 10:38:04;;;;;;;9.27;6.07;;;;;;;12.98;95.56;99573.78;4993197;28;20222;-70
2023/10/28 10:40:33;;;;;;;13.67;6.50;;;;;;;13.01;94.09;99579.16;4993556;28;20215;-70
2023/10/28 10:43:05;;;;;;;7.43;5.70;;;;;;;13.03;92.65;99576.88;4995270;28;20433;-71
2023/10/28 10:45:35;;;;;;;6.50;5.50;;;;;;;13.08;93.78;99586.38;4989327;28;20227;-71
2023/10/28 10:48:02;;;;;;;8.13;5.23;;;;;;;13.10;94.60;99584.16;4993350;28;20235;-70
2023/10/28 10:50:30;;;;;;;7.03;5.27;;;;;;;13.08;94.14;99589.81;4990505;28;20209;-70
2023/10/28 10:52:57;;;;;;;4.80;4.17;;;;;;;13.05;92.47;99587.13;4994577;28;20210;-70
2023/10/28 10:55:24;;;;;;;5.97;4.37;;;;;;;13.04;93.86;99594.31;4990595;28;21342;-69
2023/10/28 10:57:51;;;;;;;4.40;3.73;;;;;;;13.02;93.57;99585.97;4995455;28;20231;-70
2023/10/28 11:00:18;;;;;;;4.40;3.80;;;;;;;13.03;94.30;99592.78;4991831;28;20219;-72
2023/10/28 11:02:46;;;;;;;8.43;3.57;;;;;;;13.02;93.78;99598.44;4991132;28;20222;-70
2023/10/28 11:05:13;;;;;;;4.70;3.40;;;;;;;13.01;93.83;99596.94;4991664;28;20234;-70
2023/10/28 11:07:42;;;;;;;3.23;2.93;;;;;;;13.01;94.21;99605.66;4994226;28;20720;-71
2023/10/28 11:10:09;;;;;;;4.27;3.03;;;;;;;13.03;94.58;99602.63;4992375;28;21308;-69
2023/10/28 11:12:36;;;;;;;3.03;2.80;;;;;;;13.06;94.83;99612.50;4993104;28;20826;-70
2023/10/28 11:15:03;;;;;;;5.77;3.17;;;;;;;13.06;94.20;99607.97;4992427;28;20709;-70
2023/10/28 11:17:29;;;;;;;3.50;2.23;;;;;;;13.09;94.94;99601.94;4992967;28;20231;-70
2023/10/28 11:20:00;;;;;;;3.60;2.43;;;;;;;13.12;94.91;99605.75;4993808;28;20341;-70
2023/10/28 11:22:26;;;;;;;3.03;2.20;;;;;;;13.11;95.04;99609.53;4995305;28;20213;-70
2023/10/28 11:24:56;;;;;;;2.33;2.13;;;;;;;13.11;95.15;99607.63;4992188;28;21459;-69
2023/10/28 11:27:24;;;;;;;4.13;2.00;;;;;;;13.15;95.42;99612.97;4991036;28;20314;-70
2023/10/28 11:29:51;;;;;;;2.13;1.93;;;;;;;13.15;94.72;99610.31;4993196;28;20210;-70